Time;durP1;ratioP1;P1;durP2;ratioP2;P2;SDS_P1;SDS_P2;PMS_P1;PMS_P2;Temp;Humidity;BMP_temperature;BMP_pressure;BME280_temperature;BME280_humidity;BME280_pressure;Samples;Min_cycle;Max_cycle;Signal;HPM_P1;HPM_P2
2023/07/01 00:01:12;;;;;;;6.72;5.22;;;;;;;17.21;86.56;100353.03;7401164;19;20082;-65
2023/07/01 00:03:41;;;;;;;6.95;6.18;;;;;;;17.22;86.22;100363.53;7400294;19;20087;-65
2023/07/01 00:06:10;;;;;;;7.68;6.22;;;;;;;17.22;86.21;100357.38;7401124;19;20082;-65
2023/07/01 00:08:38;;;;;;;6.25;5.45;;;;;;;17.21;86.33;100351.25;7401416;19;20026;-65
2023/07/01 00:11:07;;;;;;;6.18;5.57;;;;;;;17.21;86.10;100355.66;7400867;19;20074;-66
2023/07/01 00:13:38;;;;;;;7.78;5.45;;;;;;;17.21;85.89;100355.66;7399656;19;20380;-66
2023/07/01 00:16:07;;;;;;;7.97;5.82;;;;;;;17.20;86.23;100352.19;7400916;19;20086;-65
2023/07/01 00:18:35;;;;;;;6.40;5.80;;;;;;;17.20;86.10;100359.25;7400833;19;20023;-65
2023/07/01 00:21:04;;;;;;;6.22;5.63;;;;;;;17.20;86.01;100359.25;7401030;19;20165;-65
2023/07/01 00:23:32;;;;;;;8.80;5.53;;;;;;;17.19;86.15;100355.75;7399388;19;20094;-65
2023/07/01 00:26:01;;;;;;;6.20;5.40;;;;;;;17.19;86.21;100357.56;7398277;19;20081;-64
2023/07/01 00:28:30;;;;;;;6.13;5.53;;;;;;;17.19;86.08;100352.28;7398293;19;20026;-64
2023/07/01 00:31:01;;;;;;;7.93;5.60;;;;;;;17.18;86.47;100351.41;7401083;19;20073;-65
2023/07/01 00:33:29;;;;;;;6.50;5.82;;;;;;;17.18;86.23;100347.91;7397724;19;20445;-64
2023/07/01 00:35:58;;;;;;;7.28;6.00;;;;;;;17.17;86.43;100344.38;7400495;19;20085;-65
2023/07/01 00:38:26;;;;;;;6.80;6.10;;;;;;;17.17;86.52;100339.06;7398216;19;20078;-64
2023/07/01 00:40:55;;;;;;;6.63;5.97;;;;;;;17.17;86.30;100338.22;7400313;19;20078;-64
2023/07/01 00:43:23;;;;;;;6.47;5.40;;;;;;;17.17;86.77;100339.06;7398962;19;20426;-65
2023/07/01 00:45:52;;;;;;;6.95;6.20;;;;;;;17.14;86.63;100328.66;7397755;19;20090;-65
2023/07/01 00:48:26;;;;;;;6.18;5.57;;;;;;;17.17;86.54;100339.06;7399784;19;20481;-65
2023/07/01 00:50:56;;;;;;;7.20;6.45;;;;;;;17.17;86.87;100335.59;7397294;19;20015;-65
2023/07/01 00:53:25;;;;;;;9.23;6.25;;;;;;;17.17;86.86;100327.63;7397927;19;20019;-64
2023/07/01 00:55:54;;;;;;;7.93;6.80;;;;;;;17.16;87.14;100332.09;7397432;19;20074;-64
2023/07/01 00:58:22;;;;;;;6.60;6.00;;;;;;;17.15;87.10;100332.16;7395145;19;20082;-65
2023/07/01 01:00:51;;;;;;;7.63;6.65;;;;;;;17.16;87.07;100331.22;7399704;19;20098;-64
2023/07/01 01:03:29;;;;;;;7.82;6.40;;;;;;;17.14;87.37;100326.00;7396909;19;20085;-64
2023/07/01 01:06:05;;;;;;;7.35;6.63;;;;;;;17.14;87.31;100323.34;7397614;19;20011;-65
2023/07/01 01:08:45;;;;;;;7.45;6.40;;;;;;;17.14;87.75;100322.50;7399119;19;20017;-65
2023/07/01 01:11:16;;;;;;;9.05;6.85;;;;;;;17.13;87.38;100320.81;7398972;19;20485;-64
2023/07/01 01:13:45;;;;;;;7.82;6.97;;;;;;;17.12;87.61;100319.94;7397410;19;20025;-66
2023/07/01 01:16:16;;;;;;;7.72;5.88;;;;;;;17.09;87.43;100310.34;7396481;19;20505;-66
2023/07/01 01:18:50;;;;;;;7.75;6.80;;;;;;;17.06;87.85;100307.88;7396486;19;20090;-66
2023/07/01 01:21:20;;;;;;;7.70;6.97;;;;;;;17.05;87.85;100314.13;7399528;19;20082;-66
2023/07/01 01:23:55;;;;;;;8.18;6.60;;;;;;;17.06;87.81;100317.63;7398011;19;20074;-65
2023/07/01 01:26:26;;;;;;;8.85;7.20;;;;;;;17.02;88.21;100309.00;7396376;19;20509;-65
2023/07/01 01:28:58;;;;;;;7.85;7.15;;;;;;;17.02;88.12;100305.47;7399213;19;20066;-66
2023/07/01 01:31:28;;;;;;;8.07;7.28;;;;;;;16.98;88.22;100296.00;7399107;19;20082;-66
2023/07/01 01:33:57;;;;;;;8.05;7.25;;;;;;;16.95;88.00;100294.38;7396262;19;20372;-66
2023/07/01 01:36:37;;;;;;;8.07;6.85;;;;;;;16.92;88.30;100298.06;7398572;19;20090;-66
2023/07/01 01:39:08;;;;;;;8.57;7.68;;;;;;;16.88;88.28;100288.53;7398904;19;20127;-65
2023/07/01 01:41:42;;;;;;;10.90;7.53;;;;;;;16.85;88.39;100283.41;7398868;19;20031;-66
2023/07/01 01:44:22;;;;;;;8.40;7.15;;;;;;;16.83;88.67;100281.78;7396424;19;20019;-66
2023/07/01 01:46:51;;;;;;;10.10;7.63;;;;;;;16.82;88.59;100290.66;7398698;19;20032;-64
2023/07/01 01:49:21;;;;;;;8.13;7.43;;;;;;;16.80;89.14;100290.75;7398143;19;20089;-66
2023/07/01 01:51:50;;;;;;;9.88;7.68;;;;;;;16.77;89.18;100288.28;7395745;19;20023;-64
2023/07/01 01:54:19;;;;;;;7.85;7.03;;;;;;;16.76;89.43;100281.28;7395592;19;20430;-64
2023/07/01 01:56:48;;;;;;;11.40;7.93;;;;;;;16.73;89.08;100282.28;7395838;19;20426;-64
2023/07/01 01:59:19;;;;;;;8.35;7.40;;;;;;;16.71;89.46;100281.50;7397871;19;20081;-64
2023/07/01 02:01:48;;;;;;;8.18;7.40;;;;;;;16.71;89.81;100278.88;7397379;19;20427;-65
2023/07/01 02:04:16;;;;;;;12.85;8.57;;;;;;;16.69;89.70;100285.19;7395896;19;20431;-65
2023/07/01 02:06:45;;;;;;;10.25;8.07;;;;;;;16.66;89.71;100280.91;7397119;19;20078;-65
2023/07/01 02:09:13;;;;;;;7.75;7.05;;;;;;;16.65;90.32;100283.66;7397473;19;20069;-65
2023/07/01 02:11:42;;;;;;;11.85;8.23;;;;;;;16.63;90.23;100278.44;7396501;19;20502;-64
2023/07/01 02:14:10;;;;;;;11.30;8.30;;;;;;;16.63;90.53;100280.22;7395955;19;20091;-65
2023/07/01 02:16:41;;;;;;;9.60;8.57;;;;;;;16.62;90.63;100276.72;7394905;19;20078;-66
2023/07/01 02:19:10;;;;;;;11.68;8.75;;;;;;;16.62;90.93;100268.78;7394846;19;20018;-65
2023/07/01 02:21:38;;;;;;;9.00;8.10;;;;;;;16.61;90.55;100267.91;7396513;19;20503;-63
2023/07/01 02:24:07;;;;;;;10.98;7.93;;;;;;;16.61;90.75;100261.78;7395669;19;20018;-65
2023/07/01 02:26:36;;;;;;;11.35;8.95;;;;;;;16.61;90.67;100267.06;7396483;19;20513;-65
2023/07/01 02:29:05;;;;;;;11.98;9.30;;;;;;;16.60;90.82;100260.06;7395095;19;20078;-64
2023/07/01 02:31:33;;;;;;;10.10;8.65;;;;;;;16.59;91.27;100253.91;7395058;19;20019;-65
2023/07/01 02:34:04;;;;;;;10.43;9.38;;;;;;;16.58;91.36;100254.84;7394890;19;20090;-65
2023/07/01 02:36:33;;;;;;;13.75;9.70;;;;;;;16.58;91.11;100256.63;7396928;19;20081;-65
2023/07/01 02:39:01;;;;;;;10.13;9.13;;;;;;;16.57;91.57;100255.78;7395013;19;20082;-65
2023/07/01 02:41:29;;;;;;;10.55;9.18;;;;;;;16.55;91.42;100252.34;7396372;19;20023;-65
2023/07/01 02:43:58;;;;;;;11.00;9.80;;;;;;;16.54;91.40;100250.66;7394241;19;20484;-64
2023/07/01 02:46:27;;;;;;;11.32;9.38;;;;;;;16.54;91.43;100253.31;7396310;19;20070;-65
2023/07/01 02:49:02;;;;;;;12.65;9.68;;;;;;;16.54;91.82;100252.44;7395879;19;20380;-64
2023/07/01 02:51:33;;;;;;;11.95;9.52;;;;;;;16.52;91.83;100246.41;7394173;19;20021;-65
2023/07/01 02:54:08;;;;;;;11.00;9.90;;;;;;;16.52;91.75;100249.03;7394407;19;20379;-65
2023/07/01 02:56:37;;;;;;;13.40;10.02;;;;;;;16.51;91.87;100249.97;7394354;19;20040;-64
2023/07/01 02:59:06;;;;;;;12.55;10.60;;;;;;;16.49;91.91;100246.53;7394505;19;20078;-65
2023/07/01 03:01:34;;;;;;;11.55;10.35;;;;;;;16.49;91.74;100246.53;7395807;19;20014;-65
2023/07/01 03:04:04;;;;;;;12.70;10.52;;;;;;;16.47;91.92;100240.47;7393915;19;20157;-66
2023/07/01 03:06:37;;;;;;;12.57;11.23;;;;;;;16.45;92.30;100244.06;7393636;19;20397;-64
2023/07/01 03:09:07;;;;;;;10.43;9.27;;;;;;;16.44;92.13;100236.19;7395345;19;20032;-64
2023/07/01 03:11:36;;;;;;;13.48;10.52;;;;;;;16.45;92.16;100236.13;7394990;19;20364;-64
2023/07/01 03:14:05;;;;;;;11.77;10.65;;;;;;;16.47;92.57;100235.16;7393774;19;20078;-64
2023/07/01 03:16:33;;;;;;;14.73;11.38;;;;;;;16.46;92.45;100239.63;7395240;19;20078;-64
2023/07/01 03:19:05;;;;;;;19.20;11.35;;;;;;;16.44;92.45;100229.13;7393923;19;20022;-64
2023/07/01 03:21:36;;;;;;;13.25;11.23;;;;;;;16.43;92.63;100234.50;7395391;19;20489;-64
2023/07/01 03:24:05;;;;;;;13.05;11.63;;;;;;;16.41;92.60;100223.97;7400567;19;20035;-64
2023/07/01 03:26:33;;;;;;;14.45;12.23;;;;;;;16.41;92.73;100228.44;7399472;19;20024;-65
2023/07/01 03:29:02;;;;;;;15.90;12.35;;;;;;;16.39;92.96;100223.22;7402767;19;20022;-64
2023/07/01 03:31:32;;;;;;;15.73;12.65;;;;;;;16.38;93.13;100229.47;7402697;19;20040;-64
2023/07/01 03:34:01;;;;;;;20.75;12.77;;;;;;;16.37;92.98;100222.44;7399350;19;20026;-64
2023/07/01 03:36:30;;;;;;;20.45;12.23;;;;;;;16.38;93.10;100229.47;7402150;19;20018;-65
2023/07/01 03:39:01;;;;;;;16.45;12.30;;;;;;;16.38;93.46;100224.16;7399941;19;20377;-65
2023/07/01 03:41:29;;;;;;;18.58;13.30;;;;;;;16.39;93.47;100225.88;7402812;19;20018;-65
2023/07/01 03:43:58;;;;;;;14.82;10.98;;;;;;;16.41;93.07;100229.28;7400415;19;20081;-64
2023/07/01 03:46:26;;;;;;;13.63;12.02;;;;;;;16.42;93.31;100228.34;7401684;19;20028;-65
2023/07/01 03:48:55;;;;;;;17.63;12.60;;;;;;;16.44;93.05;100225.59;7399064;19;20039;-65
2023/07/01 03:51:24;;;;;;;13.27;11.88;;;;;;;16.46;93.21;100229.03;7402056;19;20022;-65
2023/07/01 03:53:58;;;;;;;19.23;15.25;;;;;;;16.49;93.41;100228.00;7398602;19;20038;-64
2023/07/01 03:56:36;;;;;;;16.73;14.25;;;;;;;16.48;93.73;100223.66;7402085;19;20014;-65
2023/07/01 03:59:04;;;;;;;19.75;15.05;;;;;;;16.50;93.24;100224.44;7400255;19;20018;-66
2023/07/01 04:01:33;;;;;;;14.20;11.93;;;;;;;16.50;93.47;100222.63;7401333;19;20014;-65
2023/07/01 04:04:03;;;;;;;18.70;12.95;;;;;;;16.50;93.21;100227.91;7398816;19;20022;-65
2023/07/01 04:06:31;;;;;;;17.63;13.25;;;;;;;16.52;92.91;100222.56;7401559;19;20081;-65
2023/07/01 04:09:00;;;;;;;18.65;12.45;;;;;;;16.53;92.67;100225.13;7401500;19;20015;-66
2023/07/01 04:11:30;;;;;;;19.30;13.43;;;;;;;16.55;92.91;100225.03;7402075;19;20039;-67
2023/07/01 04:14:02;;;;;;;16.38;12.10;;;;;;;16.56;92.64;100226.75;7399276;19;20519;-66
2023/07/01 04:16:31;;;;;;;15.13;11.05;;;;;;;16.58;92.26;100228.38;7401648;19;20014;-66
2023/07/01 04:18:59;;;;;;;15.88;11.63;;;;;;;16.60;92.50;100222.97;7399473;19;20014;-66
2023/07/01 04:21:28;;;;;;;12.80;11.50;;;;;;;16.61;92.01;100222.03;7400627;19;20021;-66
2023/07/01 04:23:56;;;;;;;12.93;10.82;;;;;;;16.63;92.13;100222.81;7398183;19;20019;-66
2023/07/01 04:26:26;;;;;;;14.63;11.82;;;;;;;16.65;91.94;100220.09;7400878;19;20018;-65
2023/07/01 04:28:55;;;;;;;14.07;11.88;;;;;;;16.67;91.50;100216.41;7400330;19;20019;-66
2023/07/01 04:31:26;;;;;;;15.82;11.65;;;;;;;16.70;91.40;100218.03;7398144;19;20014;-66
2023/07/01 04:33:54;;;;;;;14.73;10.55;;;;;;;16.73;91.34;100218.72;7399030;19;20026;-66
2023/07/01 04:36:23;;;;;;;15.27;10.50;;;;;;;16.74;90.75;100215.13;7400524;19;20010;-66
2023/07/01 04:38:51;;;;;;;13.35;9.98;;;;;;;16.78;90.36;100221.09;7398980;19;20022;-66
2023/07/01 04:41:20;;;;;;;12.23;10.40;;;;;;;16.81;90.30;100215.63;7400251;19;20036;-66
2023/07/01 04:43:48;;;;;;;14.02;10.25;;;;;;;16.84;90.00;100212.81;7398345;19;20035;-66
2023/07/01 04:46:17;;;;;;;14.68;8.75;;;;;;;16.85;89.04;100209.22;7399837;19;20074;-66
2023/07/01 04:48:48;;;;;;;10.65;9.40;;;;;;;16.88;88.87;100213.47;7399980;19;20039;-66
2023/07/01 04:51:17;;;;;;;12.68;8.82;;;;;;;16.90;88.14;100211.63;7400210;19;20010;-66
2023/07/01 04:53:45;;;;;;;10.80;8.82;;;;;;;16.92;87.42;100212.41;7400452;19;20510;-66
2023/07/01 04:56:14;;;;;;;10.48;8.63;;;;;;;16.91;86.96;100211.56;7399807;19;20035;-66
2023/07/01 04:58:42;;;;;;;10.93;9.57;;;;;;;16.92;86.08;100212.41;7398879;19;20019;-66
2023/07/01 05:01:11;;;;;;;12.73;9.30;;;;;;;16.93;85.71;100214.97;7396947;19;20028;-66
2023/07/01 05:03:39;;;;;;;11.15;8.50;;;;;;;16.93;85.41;100214.09;7398294;19;20031;-66
2023/07/01 05:06:10;;;;;;;9.63;7.75;;;;;;;16.91;84.67;100219.50;7397163;19;20018;-66
2023/07/01 05:08:39;;;;;;;12.40;7.95;;;;;;;16.89;83.42;100220.50;7399894;19;20031;-66
2023/07/01 05:11:07;;;;;;;9.23;7.30;;;;;;;16.85;83.71;100219.81;7399600;19;20014;-66
2023/07/01 05:13:36;;;;;;;14.00;8.40;;;;;;;16.84;83.80;100210.16;7397662;19;20018;-66
2023/07/01 05:16:05;;;;;;;11.25;8.10;;;;;;;16.84;83.87;100214.59;7396764;19;20041;-65
2023/07/01 05:18:33;;;;;;;10.27;7.75;;;;;;;16.82;83.52;100209.41;7397773;19;20017;-66
2023/07/01 05:21:02;;;;;;;13.45;7.68;;;;;;;16.81;83.63;100207.69;7399032;19;20022;-67
2023/07/01 05:23:33;;;;;;;9.65;8.05;;;;;;;16.82;83.72;100208.53;7397973;19;20035;-66
2023/07/01 05:26:01;;;;;;;10.07;7.75;;;;;;;16.80;83.38;100208.63;7396412;19;20037;-66
2023/07/01 05:28:30;;;;;;;11.18;7.43;;;;;;;16.80;83.30;100203.31;7398908;19;20031;-66
2023/07/01 05:30:58;;;;;;;10.35;7.90;;;;;;;16.81;83.29;100199.75;7398270;19;20485;-66
2023/07/01 05:33:26;;;;;;;9.90;7.38;;;;;;;16.81;83.06;100205.03;7397685;19;20039;-66
2023/07/01 05:35:55;;;;;;;10.43;7.15;;;;;;;16.82;83.20;100200.59;7398581;19;20036;-65
2023/07/01 05:38:23;;;;;;;12.27;7.65;;;;;;;16.84;82.81;100196.91;7397520;19;20556;-66
2023/07/01 05:40:54;;;;;;;10.23;7.07;;;;;;;16.88;82.57;100208.19;7398362;19;20018;-66
2023/07/01 05:43:23;;;;;;;14.70;7.35;;;;;;;16.90;82.57;100201.03;7397154;19;20545;-66
2023/07/01 05:45:51;;;;;;;10.90;7.47;;;;;;;16.93;82.01;100204.38;7396483;19;20035;-66
2023/07/01 05:48:20;;;;;;;11.95;7.28;;;;;;;16.97;81.76;100202.38;7398081;19;20078;-66
2023/07/01 05:50:48;;;;;;;8.15;6.88;;;;;;;17.01;81.61;100203.06;7395827;19;20039;-66
2023/07/01 05:53:17;;;;;;;11.57;9.32;;;;;;;17.04;81.23;100200.25;7396391;19;20028;-66
2023/07/01 05:55:45;;;;;;;12.27;7.35;;;;;;;17.07;80.80;100202.72;7397516;19;20023;-66
2023/07/01 05:58:16;;;;;;;8.30;6.50;;;;;;;17.12;80.09;100210.41;7397480;19;20022;-66
2023/07/01 06:00:45;;;;;;;10.75;6.53;;;;;;;17.15;79.49;100202.28;7395714;19;20035;-66
2023/07/01 06:03:14;;;;;;;7.43;6.57;;;;;;;17.18;78.89;100210.06;7395404;19;20040;-66
2023/07/01 06:05:42;;;;;;;11.25;6.43;;;;;;;17.22;79.13;100207.13;7397161;19;20048;-66
2023/07/01 06:08:11;;;;;;;8.07;6.25;;;;;;;17.28;78.90;100207.75;7397629;19;20031;-66
2023/07/01 06:10:40;;;;;;;18.60;6.68;;;;;;;17.33;78.61;100203.03;7397030;19;20033;-66
2023/07/01 06:13:08;;;;;;;8.73;6.03;;;;;;;17.38;77.88;100203.59;7394982;19;20035;-66
2023/07/01 06:15:39;;;;;;;8.55;5.85;;;;;;;17.44;77.95;100200.59;7397246;19;20031;-65
2023/07/01 06:18:08;;;;;;;10.18;5.80;;;;;;;17.50;77.77;100191.41;7395851;19;20039;-66
2023/07/01 06:20:36;;;;;;;8.30;6.00;;;;;;;17.55;76.61;100195.50;7395092;19;20040;-66
2023/07/01 06:23:05;;;;;;;8.73;4.93;;;;;;;17.62;76.14;100197.78;7396422;19;20040;-65
2023/07/01 06:25:33;;;;;;;7.47;5.65;;;;;;;17.66;75.79;100192.19;7396871;19;20026;-65
2023/07/01 06:28:02;;;;;;;8.77;4.70;;;;;;;17.71;75.41;100192.75;7396600;19;20018;-66
2023/07/01 06:30:30;;;;;;;8.15;4.97;;;;;;;17.78;74.76;100189.75;7396201;19;20027;-66
2023/07/01 06:33:01;;;;;;;8.35;5.38;;;;;;;17.84;73.39;100198.16;7394654;19;20040;-65
2023/07/01 06:35:29;;;;;;;7.35;4.32;;;;;;;17.89;73.39;100189.94;7394847;19;20022;-65
2023/07/01 06:37:58;;;;;;;8.57;4.30;;;;;;;17.96;72.81;100183.34;7396309;19;20014;-67
2023/07/01 06:40:26;;;;;;;7.72;4.03;;;;;;;18.01;72.21;100191.88;7394133;19;20027;-66
2023/07/01 06:42:55;;;;;;;6.72;3.90;;;;;;;18.09;71.71;100186.09;7394306;19;20031;-66
2023/07/01 06:45:23;;;;;;;6.30;3.80;;;;;;;18.15;70.98;100185.72;7394498;19;20023;-65
2023/07/01 06:47:52;;;;;;;8.55;3.58;;;;;;;18.22;70.26;100184.38;7395511;19;20018;-66
2023/07/01 06:50:23;;;;;;;5.72;3.25;;;;;;;18.30;69.92;100185.69;7395929;19;20040;-66
2023/07/01 06:52:51;;;;;;;6.30;3.42;;;;;;;18.36;69.22;100178.22;7394223;19;20018;-66
2023/07/01 06:55:21;;;;;;;7.18;3.63;;;;;;;18.44;68.08;100184.81;7395712;19;20022;-66
2023/07/01 06:57:49;;;;;;;4.43;3.60;;;;;;;18.49;67.78;100174.78;7393804;19;20375;-66
2023/07/01 07:00:18;;;;;;;9.75;3.83;;;;;;;18.56;67.58;100176.06;7394395;19;20014;-66
2023/07/01 07:02:46;;;;;;;5.95;3.05;;;;;;;18.63;67.40;100169.41;7394759;19;20081;-65
2023/07/01 07:05:15;;;;;;;3.60;2.40;;;;;;;18.69;65.63;100174.34;7395349;19;20022;-65
2023/07/01 07:07:47;;;;;;;5.50;2.80;;;;;;;18.78;64.30;100172.00;7392913;19;20014;-66
2023/07/01 07:10:15;;;;;;;5.63;2.30;;;;;;;18.82;63.16;100176.19;7393661;19;20035;-66
2023/07/01 07:12:44;;;;;;;3.42;2.30;;;;;;;18.89;62.53;100166.84;7394292;19;20031;-67
2023/07/01 07:15:13;;;;;;;3.08;2.28;;;;;;;18.95;61.60;100165.63;7394454;19;20053;-66
2023/07/01 07:17:41;;;;;;;6.63;2.33;;;;;;;19.00;61.83;100160.88;7392199;19;20383;-66
2023/07/01 07:20:11;;;;;;;3.25;1.90;;;;;;;19.05;60.36;100175.53;7393729;19;20109;-67
2023/07/01 07:22:39;;;;;;;3.13;1.98;;;;;;;19.11;59.82;100165.44;7392910;19;20022;-67
2023/07/01 07:25:16;;;;;;;4.50;2.17;;;;;;;19.18;59.47;100166.75;7395419;19;20019;-66
2023/07/01 07:27:45;;;;;;;5.05;2.58;;;;;;;19.23;59.23;100167.28;7395101;19;20014;-66
2023/07/01 07:30:15;;;;;;;3.88;2.30;;;;;;;19.27;58.19;100155.50;7395028;19;20035;-65
2023/07/01 07:32:45;;;;;;;5.68;1.70;;;;;;;19.33;57.52;100156.88;7394389;19;20022;-66
2023/07/01 07:35:14;;;;;;;2.97;1.77;;;;;;;19.36;56.69;100149.56;7392866;19;20022;-66
2023/07/01 07:37:42;;;;;;;4.15;1.83;;;;;;;19.40;56.10;100152.00;7392467;19;20035;-67
2023/07/01 07:40:14;;;;;;;4.47;1.63;;;;;;;19.42;54.63;100153.59;7393289;19;20015;-65
2023/07/01 07:42:44;;;;;;;5.28;1.63;;;;;;;19.44;54.78;100150.84;7392496;19;20018;-66
2023/07/01 07:45:17;;;;;;;4.28;1.77;;;;;;;19.48;54.51;100142.53;7393812;19;20022;-65
2023/07/01 07:47:45;;;;;;;3.38;2.35;;;;;;;19.51;54.56;100142.34;7394717;19;20022;-66
2023/07/01 07:50:14;;;;;;;2.42;1.70;;;;;;;19.57;54.65;100142.88;7391813;19;20070;-66
2023/07/01 07:52:42;;;;;;;8.35;2.40;;;;;;;19.61;54.88;100137.22;7394529;19;20023;-66
2023/07/01 07:55:20;;;;;;;5.32;2.25;;;;;;;19.66;54.63;100134.25;7391617;19;20410;-66
2023/07/01 07:57:49;;;;;;;4.88;1.90;;;;;;;19.70;54.67;100141.91;7394564;19;20019;-65
2023/07/01 08:00:18;;;;;;;4.15;1.63;;;;;;;19.76;54.23;100132.63;7392881;19;20019;-66
2023/07/01 08:02:49;;;;;;;4.63;2.28;;;;;;;19.82;53.60;100136.69;7393570;19;20019;-67
2023/07/01 08:05:18;;;;;;;9.52;1.90;;;;;;;19.86;53.76;100132.88;7394031;19;20023;-66
2023/07/01 08:07:48;;;;;;;3.20;2.17;;;;;;;19.90;52.68;100120.22;7392397;19;20011;-65
2023/07/01 08:10:20;;;;;;;3.50;1.88;;;;;;;19.93;52.87;100120.84;7401754;19;20015;-66
2023/07/01 08:12:49;;;;;;;4.13;2.10;;;;;;;19.96;52.61;100120.63;7398806;19;20035;-66
2023/07/01 08:15:17;;;;;;;4.78;2.00;;;;;;;20.01;52.52;100117.63;7401267;19;20022;-66
2023/07/01 08:17:46;;;;;;;6.10;2.10;;;;;;;20.04;52.70;100114.75;7401089;19;20042;-66
2023/07/01 08:20:15;;;;;;;3.58;2.20;;;;;;;20.08;52.62;100121.56;7397707;19;20498;-66
2023/07/01 08:22:43;;;;;;;4.22;2.10;;;;;;;20.10;52.65;100113.47;7400947;19;20019;-66
2023/07/01 08:25:11;;;;;;;3.80;2.30;;;;;;;20.12;52.35;100107.06;7400096;19;20103;-66
2023/07/01 08:27:42;;;;;;;3.80;2.08;;;;;;;20.14;52.24;100121.13;7400341;19;20028;-67
2023/07/01 08:30:12;;;;;;;5.57;2.28;;;;;;;20.19;52.02;100102.13;7400035;19;20533;-66
2023/07/01 08:32:41;;;;;;;5.05;2.00;;;;;;;20.22;51.62;100104.59;7399580;19;20481;-66
2023/07/01 08:35:10;;;;;;;3.85;2.53;;;;;;;20.24;51.50;100105.31;7399376;19;20018;-66
2023/07/01 08:37:39;;;;;;;5.85;2.30;;;;;;;20.27;49.68;100099.78;7400327;19;20019;-67
2023/07/01 08:40:09;;;;;;;4.05;1.75;;;;;;;20.28;50.77;100087.31;7398726;19;20023;-66
2023/07/01 08:42:48;;;;;;;2.78;1.88;;;;;;;20.31;48.61;100092.44;7397415;19;20018;-67
2023/07/01 08:45:16;;;;;;;4.82;1.88;;;;;;;20.36;49.81;100092.94;7400715;19;20025;-67
2023/07/01 08:47:45;;;;;;;1.95;1.45;;;;;;;20.43;50.01;100091.50;7400076;19;20031;-66
2023/07/01 08:50:20;;;;;;;2.05;1.70;;;;;;;20.48;48.52;100085.84;7400270;19;20022;-67
2023/07/01 08:52:51;;;;;;;4.75;1.90;;;;;;;20.56;49.26;100085.28;7399670;19;20022;-66
2023/07/01 08:55:20;;;;;;;6.68;1.65;;;;;;;20.61;49.08;100091.09;7397284;19;20011;-66
2023/07/01 08:57:51;;;;;;;5.82;2.28;;;;;;;20.68;49.03;100084.38;7398504;19;20484;-66
2023/07/01 09:00:20;;;;;;;5.50;1.70;;;;;;;20.77;48.78;100089.03;7398260;19;20025;-66
2023/07/01 09:02:50;;;;;;;2.65;1.98;;;;;;;20.83;47.75;100083.22;7396900;19;20082;-66
2023/07/01 09:05:19;;;;;;;6.18;2.10;;;;;;;20.90;48.12;100082.78;7399400;19;20032;-66
2023/07/01 09:07:48;;;;;;;4.22;1.52;;;;;;;20.94;47.46;100087.78;7398780;19;20474;-67
2023/07/01 09:10:16;;;;;;;4.50;1.80;;;;;;;21.01;48.06;100079.31;7399145;19;20010;-67
2023/07/01 09:12:45;;;;;;;4.63;2.03;;;;;;;21.07;47.51;100073.50;7396798;19;20095;-66
2023/07/01 09:15:16;;;;;;;2.85;1.73;;;;;;;21.16;47.30;100072.78;7397119;19;20032;-66
2023/07/01 09:17:44;;;;;;;2.60;1.83;;;;;;;21.23;47.33;100068.69;7401266;19;20074;-66
2023/07/01 09:20:15;;;;;;;3.65;1.80;;;;;;;21.30;47.68;100069.06;7396093;19;20014;-66
2023/07/01 09:22:45;;;;;;;2.92;1.63;;;;;;;21.37;46.77;100059.63;7396491;19;20078;-66
2023/07/01 09:25:28;;;;;;;3.05;1.92;;;;;;;21.37;44.83;100056.06;7397666;19;20015;-66
2023/07/01 09:27:57;;;;;;;3.47;1.90;;;;;;;21.40;46.73;100054.03;7399578;19;20112;-66
2023/07/01 09:30:29;;;;;;;4.10;1.92;;;;;;;21.48;47.08;100053.41;7396261;19;20026;-66
2023/07/01 09:33:16;;;;;;;5.03;2.25;;;;;;;21.55;46.48;100044.00;7396407;19;20018;-66
2023/07/01 09:35:46;;;;;;;4.32;1.90;;;;;;;21.60;47.05;100044.47;7397549;19;20007;-66
2023/07/01 09:38:15;;;;;;;4.70;1.92;;;;;;;21.67;47.01;100041.31;7395337;19;20018;-67
2023/07/01 09:40:44;;;;;;;2.88;1.50;;;;;;;21.72;46.56;100028.47;7395887;19;20481;-66
2023/07/01 09:43:14;;;;;;;4.72;1.77;;;;;;;21.77;45.94;100055.63;7395960;19;20043;-66
2023/07/01 09:45:54;;;;;;;3.55;1.58;;;;;;;21.78;44.66;100036.81;7397303;19;20078;-67
2023/07/01 09:48:23;;;;;;;4.35;1.98;;;;;;;21.82;46.04;100029.41;7397987;19;20032;-66
2023/07/01 09:50:52;;;;;;;2.28;1.38;;;;;;;21.83;45.72;100020.44;7397463;19;20094;-67
2023/07/01 09:53:22;;;;;;;3.50;1.92;;;;;;;21.80;45.66;100024.19;7395594;19;20031;-67
2023/07/01 09:55:51;;;;;;;4.22;2.00;;;;;;;21.87;46.05;100027.22;7396122;19;20014;-67
2023/07/01 09:58:19;;;;;;;5.82;2.10;;;;;;;21.97;45.92;100022.81;7397666;19;20019;-66
2023/07/01 10:00:51;;;;;;;4.55;1.70;;;;;;;22.11;45.10;100015.50;7396599;19;20078;-67
2023/07/01 10:03:20;;;;;;;4.30;2.13;;;;;;;22.26;45.12;100022.25;7396365;19;20019;-67
2023/07/01 10:05:53;;;;;;;6.07;1.65;;;;;;;22.39;44.18;100014.13;7397824;19;20021;-67
2023/07/01 10:08:22;;;;;;;3.83;1.40;;;;;;;22.50;43.95;100013.22;7395060;19;20370;-67
2023/07/01 10:11:05;;;;;;;3.65;1.60;;;;;;;22.57;43.02;100009.06;7397358;19;20018;-67
2023/07/01 10:13:37;;;;;;;5.65;1.45;;;;;;;22.65;44.01;100002.22;7397101;19;20022;-67
2023/07/01 10:16:10;;;;;;;4.40;1.70;;;;;;;22.70;43.72;99995.50;7396300;19;20028;-67
2023/07/01 10:18:39;;;;;;;3.60;1.73;;;;;;;22.78;43.71;99979.66;7397512;19;20035;-67
2023/07/01 10:21:28;;;;;;;6.45;1.80;;;;;;;22.85;42.59;99981.78;7395763;19;20019;-67
2023/07/01 10:23:58;;;;;;;3.95;2.45;;;;;;;22.90;43.52;99971.56;7395131;19;20024;-67
2023/07/01 10:26:40;;;;;;;4.75;1.67;;;;;;;22.98;43.25;99973.59;7395490;19;20015;-67
2023/07/01 10:29:39;;;;;;;2.40;1.42;;;;;;;23.09;42.83;99968.16;7394872;19;20406;-66
2023/07/01 10:32:34;;;;;;;3.50;1.50;;;;;;;23.20;42.58;99965.41;7394995;19;20026;-67
2023/07/01 10:35:16;;;;;;;2.22;1.60;;;;;;;23.30;42.84;99946.69;7396356;19;20017;-66
2023/07/01 10:37:46;;;;;;;4.40;1.83;;;;;;;23.40;42.71;99952.09;7394185;19;20015;-66
2023/07/01 10:40:45;;;;;;;2.65;1.52;;;;;;;23.48;42.48;99936.22;7397134;19;20022;-66
2023/07/01 10:43:25;;;;;;;3.50;1.85;;;;;;;23.58;42.30;99939.75;7395282;19;20032;-67
2023/07/01 10:46:23;;;;;;;4.03;1.67;;;;;;;23.74;40.93;99947.25;7395968;19;20018;-67
2023/07/01 10:49:15;;;;;;;2.97;1.65;;;;;;;23.84;41.63;99943.75;7396585;19;20019;-67
2023/07/01 10:52:10;;;;;;;2.25;1.60;;;;;;;23.91;40.99;99937.72;7394865;19;20469;-66
2023/07/01 10:54:40;;;;;;;4.38;1.63;;;;;;;23.99;41.12;99930.84;7391959;19;20163;-66
2023/07/01 10:57:19;;;;;;;4.80;1.70;;;;;;;24.06;40.91;99930.13;7395567;19;20014;-67
2023/07/01 10:59:48;;;;;;;2.72;1.55;;;;;;;24.16;41.85;99930.13;7393289;19;20014;-66
2023/07/01 11:02:38;;;;;;;7.32;2.70;;;;;;;24.25;41.59;99925.72;7395695;19;20019;-66
2023/07/01 11:05:10;;;;;;;3.53;1.42;;;;;;;24.33;40.73;99917.00;7396474;19;20025;-66
2023/07/01 11:07:41;;;;;;;3.33;1.85;;;;;;;24.43;40.06;99922.34;7394504;19;20028;-66
2023/07/01 11:10:10;;;;;;;2.42;1.55;;;;;;;24.47;40.33;99921.06;7394765;19;20018;-67
2023/07/01 11:12:39;;;;;;;5.85;2.70;;;;;;;24.49;40.00;99909.22;7393916;19;20018;-67
2023/07/01 11:15:09;;;;;;;4.57;2.42;;;;;;;24.55;39.53;99914.00;7394541;19;20015;-67
2023/07/01 11:17:38;;;;;;;5.63;1.88;;;;;;;24.67;39.38;99905.84;7395543;19;20018;-69
2023/07/01 11:20:10;;;;;;;2.63;1.70;;;;;;;24.75;39.00;99897.88;7393719;19;20102;-70
2023/07/01 11:22:39;;;;;;;8.35;2.00;;;;;;;24.84;39.07;99880.91;7393836;19;20074;-66
2023/07/01 11:25:08;;;;;;;6.60;1.98;;;;;;;24.91;38.70;99889.22;7395716;19;20015;-66
2023/07/01 11:27:42;;;;;;;4.28;1.85;;;;;;;24.93;36.90;99884.53;7394634;19;20036;-69
2023/07/01 11:30:27;;;;;;;8.38;2.05;;;;;;;24.93;37.93;99873.81;7395262;19;20036;-68
2023/07/01 11:32:55;;;;;;;5.93;1.95;;;;;;;24.98;38.45;99876.06;7394471;19;20022;-65
2023/07/01 11:35:26;;;;;;;4.05;1.60;;;;;;;25.02;37.66;99881.00;7394608;19;20014;-67
2023/07/01 11:37:55;;;;;;;4.03;1.58;;;;;;;25.13;37.42;99879.94;7393234;19;20544;-66